createdAt,value
2018-11-10T00:00:18.802Z,50.17
2018-11-10T00:02:48.797Z,50.57
2018-11-10T00:05:18.837Z,49.00
2018-11-10T00:07:48.037Z,52.20
2018-11-10T00:10:18.140Z,52.70
2018-11-10T00:12:47.639Z,51.87
2018-11-10T00:15:16.820Z,49.27
2018-11-10T00:17:46.053Z,48.87
2018-11-10T00:20:15.229Z,46.20
2018-11-10T00:22:44.520Z,48.03
2018-11-10T00:25:14.542Z,48.83
2018-11-10T00:27:44.611Z,52.63
2018-11-10T00:30:17.766Z,51.10
2018-11-10T00:32:47.311Z,50.87
2018-11-10T00:35:16.444Z,53.37
2018-11-10T00:37:45.556Z,52.20
2018-11-10T00:40:15.951Z,52.83
2018-11-10T00:42:45.495Z,52.63
2018-11-10T00:45:14.676Z,52.23
2018-11-10T00:47:44.060Z,49.87
2018-11-10T00:50:13.267Z,50.30
2018-11-10T00:52:42.456Z,50.87
2018-11-10T00:55:11.687Z,51.67
2018-11-10T00:57:41.297Z,52.47
2018-11-10T01:00:12.160Z,51.30
2018-11-10T01:02:42.108Z,50.27
2018-11-10T01:05:12.145Z,52.73
2018-11-10T01:07:41.660Z,50.50
2018-11-10T01:10:13.152Z,48.57
2018-11-10T01:12:42.857Z,46.40
2018-11-10T01:15:16.120Z,45.70
2018-11-10T01:17:45.490Z,48.17
2018-11-10T01:20:15.175Z,42.40
2018-11-10T01:22:44.379Z,45.00
2018-11-10T01:25:13.613Z,49.33
2018-11-10T01:27:42.894Z,47.67
2018-11-10T01:30:14.800Z,49.03
2018-11-10T01:32:44.632Z,48.53
2018-11-10T01:35:14.209Z,48.43
2018-11-10T01:37:43.306Z,48.80
2018-11-10T01:40:13.807Z,49.63
2018-11-10T01:42:43.520Z,50.80
2018-11-10T01:45:14.840Z,48.77
2018-11-10T01:47:44.386Z,50.97
2018-11-10T01:50:13.712Z,49.73
2018-11-10T01:52:43.323Z,47.80
2018-11-10T01:55:12.877Z,44.20
2018-11-10T01:57:42.865Z,48.47
2018-11-10T02:00:15.943Z,47.03
2018-11-10T02:02:45.742Z,46.70
2018-11-10T02:05:15.236Z,45.73
2018-11-10T02:07:44.461Z,47.50
2018-11-10T02:10:14.007Z,48.60
2018-11-10T02:12:43.373Z,48.73
2018-11-10T02:15:14.922Z,46.37
2018-11-10T02:17:44.145Z,46.40
2018-11-10T02:20:14.380Z,48.23
2018-11-10T02:22:43.779Z,47.43
2018-11-10T02:25:13.520Z,47.20
2018-11-10T02:27:42.731Z,47.90
2018-11-10T02:30:12.461Z,48.53
2018-11-10T02:32:41.792Z,45.50
2018-11-10T02:35:11.330Z,47.80
2018-11-10T02:37:40.937Z,47.67
2018-11-10T02:40:12.035Z,46.37
2018-11-10T02:42:41.197Z,45.27
2018-11-10T02:45:11.967Z,47.30
2018-11-10T02:47:41.440Z,45.07
2018-11-10T02:50:10.796Z,43.40
2018-11-10T02:52:40.111Z,43.00
2018-11-10T02:55:10.319Z,42.97
2018-11-10T02:57:39.465Z,43.30
2018-11-10T03:00:09.901Z,42.10
2018-11-10T03:02:39.329Z,41.67
2018-11-10T03:05:09.972Z,41.47
2018-11-10T03:07:39.285Z,38.70
2018-11-10T03:10:09.477Z,39.60
2018-11-10T03:12:39.396Z,40.83
2018-11-10T03:15:09.568Z,39.37
2018-11-10T03:17:39.391Z,42.20
2018-11-10T03:20:12.107Z,36.53
2018-11-10T03:22:41.596Z,38.30
2018-11-10T03:25:11.198Z,38.00
2018-11-10T03:27:40.805Z,42.80
2018-11-10T03:30:13.051Z,41.93
2018-11-10T03:32:42.382Z,42.00
2018-11-10T03:35:11.987Z,45.83
2018-11-10T03:37:41.713Z,44.10
2018-11-10T03:40:11.973Z,45.20
2018-11-10T03:42:41.279Z,45.23
2018-11-10T03:45:11.770Z,45.57
2018-11-10T03:47:41.252Z,43.90
2018-11-10T03:50:11.157Z,43.80
2018-11-10T03:52:40.171Z,42.33
2018-11-10T03:55:09.888Z,43.03
2018-11-10T03:57:39.066Z,44.13
2018-11-10T04:00:11.747Z,44.60
2018-11-10T04:02:42.010Z,44.07
2018-11-10T04:05:11.837Z,44.50
2018-11-10T04:07:42.487Z,42.90
2018-11-10T04:10:12.248Z,45.40
2018-11-10T04:12:41.489Z,44.70
2018-11-10T04:15:10.768Z,42.60
2018-11-10T04:17:39.869Z,43.13
2018-11-10T04:20:10.155Z,43.80
2018-11-10T04:22:39.503Z,46.60
2018-11-10T04:25:09.985Z,46.47
2018-11-10T04:27:39.283Z,39.43
2018-11-10T04:30:09.384Z,39.80
2018-11-10T04:32:38.642Z,42.00
2018-11-10T04:35:08.313Z,42.17
2018-11-10T04:37:37.679Z,37.47
2018-11-10T04:40:07.994Z,39.63
2018-11-10T04:42:37.243Z,38.80
2018-11-10T04:45:07.368Z,36.87
2018-11-10T04:47:36.659Z,36.57
2018-11-10T04:50:07.073Z,35.80
2018-11-10T04:52:36.291Z,36.30
2018-11-10T04:55:05.556Z,37.10
2018-11-10T04:57:34.886Z,38.40
2018-11-10T05:03:11.754Z,38.00
2018-11-10T05:05:40.499Z,38.30
2018-11-10T05:08:09.522Z,36.20
2018-11-10T05:10:38.061Z,36.20
2018-11-10T05:13:06.795Z,35.20
2018-11-10T05:15:35.471Z,34.70
2018-11-10T05:18:04.160Z,34.67
2018-11-10T05:20:32.873Z,33.27
2018-11-10T05:23:01.632Z,31.43
2018-11-10T05:25:30.450Z,31.80
2018-11-10T05:27:59.318Z,33.17
2018-11-10T05:30:28.240Z,33.60
2018-11-10T05:32:57.168Z,34.00
2018-11-10T05:35:26.066Z,34.40
2018-11-10T05:37:54.867Z,33.20
2018-11-10T05:40:23.774Z,34.20
2018-11-10T05:42:52.425Z,35.50
2018-11-10T05:45:21.276Z,33.53
2018-11-10T05:47:51.125Z,35.80
2018-11-10T05:50:20.550Z,36.00
2018-11-10T05:52:49.448Z,32.83
2018-11-10T05:55:19.495Z,35.33
2018-11-10T05:57:48.634Z,35.70
2018-11-10T06:00:19.270Z,37.80
2018-11-10T06:02:48.706Z,36.00
2018-11-10T06:05:17.250Z,36.77
2018-11-10T06:07:47.426Z,35.20
2018-11-10T06:10:18.103Z,38.20
2018-11-10T06:12:47.524Z,36.33
2018-11-10T06:15:16.068Z,34.80
2018-11-10T06:17:45.577Z,36.87
2018-11-10T06:20:15.295Z,36.27
2018-11-10T06:22:44.443Z,36.67
2018-11-10T06:25:14.106Z,36.87
2018-11-10T06:27:42.751Z,36.00
2018-11-10T06:30:12.571Z,35.97
2018-11-10T06:32:41.998Z,36.10
2018-11-10T06:35:11.118Z,33.20
2018-11-10T06:37:40.845Z,34.63
2018-11-10T06:40:11.330Z,34.07
2018-11-10T06:42:40.846Z,32.63
2018-11-10T06:45:09.702Z,36.23
2018-11-10T06:47:39.260Z,36.40
2018-11-10T06:50:09.574Z,35.00
2018-11-10T06:52:38.367Z,35.83
2018-11-10T06:55:07.913Z,35.20
2018-11-10T06:57:36.578Z,37.67
2018-11-10T07:00:05.639Z,35.17
2018-11-10T07:02:34.419Z,35.07
2018-11-10T07:05:02.923Z,37.87
2018-11-10T07:07:32.049Z,35.23
2018-11-10T07:10:00.798Z,34.73
2018-11-10T07:12:29.741Z,34.70
2018-11-10T07:14:58.310Z,32.60
2018-11-10T07:17:27.391Z,36.33
2018-11-10T07:19:56.162Z,34.83
2018-11-10T07:22:24.994Z,35.27
2018-11-10T07:24:53.879Z,34.93
2018-11-10T07:27:22.735Z,34.60
2018-11-10T07:29:51.427Z,33.53
2018-11-10T07:32:20.299Z,37.07
2018-11-10T07:34:48.914Z,34.60
2018-11-10T07:37:17.818Z,35.67
2018-11-10T07:39:46.479Z,33.77
2018-11-10T07:42:15.042Z,36.27
2018-11-10T07:44:43.695Z,36.20
2018-11-10T07:47:12.449Z,37.40
2018-11-10T07:49:41.219Z,35.13
2018-11-10T07:52:09.842Z,35.43
2018-11-10T07:54:39.425Z,33.87
2018-11-10T07:57:08.461Z,34.27
2018-11-10T07:59:36.998Z,37.60
2018-11-10T08:02:06.019Z,35.17
2018-11-10T08:04:35.435Z,37.27
2018-11-10T08:07:05.545Z,37.10
2018-11-10T08:09:36.135Z,33.97
2018-11-10T08:12:05.241Z,34.47
2018-11-10T08:14:34.121Z,35.90
2018-11-10T08:17:03.350Z,34.40
2018-11-10T08:19:32.343Z,36.33
2018-11-10T08:22:01.798Z,39.03
2018-11-10T08:24:30.662Z,36.17
2018-11-10T08:26:59.524Z,38.67
2018-11-10T08:29:28.478Z,39.00
2018-11-10T08:31:58.173Z,40.17
2018-11-10T08:34:28.414Z,38.10
2018-11-10T08:36:57.194Z,40.43
2018-11-10T08:39:28.592Z,39.53
2018-11-10T08:41:58.918Z,39.63
2018-11-10T08:44:28.715Z,36.53
2018-11-10T08:46:58.327Z,40.03
2018-11-10T08:49:27.455Z,41.33
2018-11-10T08:51:56.482Z,38.90
2018-11-10T08:54:25.770Z,41.10
2018-11-10T08:56:54.490Z,38.97
2018-11-10T08:59:25.486Z,39.47
2018-11-10T09:01:55.275Z,44.63
2018-11-10T09:04:26.341Z,44.40
2018-11-10T09:06:56.116Z,41.00
2018-11-10T09:09:27.226Z,39.40
2018-11-10T09:11:56.499Z,39.90
2018-11-10T09:14:25.979Z,39.40
2018-11-10T09:16:55.235Z,40.97
2018-11-10T09:19:26.461Z,42.60
2018-11-10T09:21:55.548Z,43.77
2018-11-10T09:24:24.308Z,43.87
2018-11-10T09:26:55.366Z,40.70
2018-11-10T09:29:25.319Z,43.57
2018-11-10T09:31:55.874Z,41.33
2018-11-10T09:34:25.989Z,42.07
2018-11-10T09:36:56.918Z,41.90
2018-11-10T09:39:26.162Z,41.10
2018-11-10T09:41:59.028Z,42.23
2018-11-10T09:44:28.550Z,43.73
2018-11-10T09:46:57.713Z,43.63
2018-11-10T09:49:26.573Z,43.10
2018-11-10T09:51:57.710Z,42.30
2018-11-10T09:54:28.928Z,42.93
2018-11-10T09:56:57.864Z,41.33
2018-11-10T09:59:27.514Z,40.90
2018-11-10T10:01:57.449Z,40.43
2018-11-10T10:04:26.093Z,40.40
2018-11-10T10:06:56.038Z,42.60
2018-11-10T10:09:26.224Z,41.70
2018-11-10T10:11:59.685Z,40.87
2018-11-10T10:14:29.683Z,41.37
2018-11-10T10:17:01.003Z,42.10
2018-11-10T10:19:34.987Z,42.67
2018-11-10T10:22:08.290Z,42.90
2018-11-10T10:24:37.620Z,44.00
2018-11-10T10:27:12.535Z,43.57
2018-11-10T10:29:43.301Z,42.67
2018-11-10T10:32:18.375Z,39.70
2018-11-10T10:34:48.991Z,39.90
2018-11-10T10:37:22.295Z,37.00
2018-11-10T10:39:53.900Z,42.80
2018-11-10T10:42:26.694Z,38.87
2018-11-10T10:44:57.269Z,40.40
2018-11-10T10:47:26.914Z,39.03
2018-11-10T10:49:56.687Z,37.53
2018-11-10T10:52:26.635Z,39.57
2018-11-10T10:54:56.514Z,38.00
2018-11-10T10:57:27.061Z,38.20
2018-11-10T10:59:58.005Z,36.70
2018-11-10T11:02:34.519Z,34.60
2018-11-10T11:05:10.571Z,37.27
2018-11-10T11:07:41.463Z,37.77
2018-11-10T11:10:11.381Z,38.07
2018-11-10T11:12:42.207Z,38.00
2018-11-10T11:15:11.732Z,34.70
2018-11-10T11:17:41.534Z,36.73
2018-11-10T11:20:11.510Z,36.27
2018-11-10T11:22:41.008Z,35.47
2018-11-10T11:25:10.939Z,34.30
2018-11-10T11:27:39.948Z,33.87
2018-11-10T11:30:10.820Z,34.20
2018-11-10T11:32:41.509Z,32.47
2018-11-10T11:35:14.341Z,33.90
2018-11-10T11:37:45.951Z,33.50
2018-11-10T11:40:22.110Z,32.47
2018-11-10T11:42:55.866Z,33.20
2018-11-10T11:45:27.335Z,31.77
2018-11-10T11:47:57.113Z,31.20
2018-11-10T11:50:28.591Z,30.53
2018-11-10T11:52:59.139Z,31.03
2018-11-10T11:55:29.249Z,32.87
2018-11-10T11:58:02.297Z,31.77
2018-11-10T12:00:34.994Z,30.50
2018-11-10T12:03:12.098Z,28.33
2018-11-10T12:05:41.994Z,30.73
2018-11-10T12:08:15.233Z,32.07
2018-11-10T12:10:45.872Z,32.20
2018-11-10T12:13:21.002Z,30.30
2018-11-10T12:15:54.105Z,32.30
2018-11-10T12:18:27.233Z,33.30
2018-11-10T12:20:58.981Z,32.50
2018-11-10T12:23:31.497Z,31.53
2018-11-10T12:26:02.152Z,31.70
2018-11-10T12:28:32.638Z,33.70
2018-11-10T12:31:03.909Z,32.80
2018-11-10T12:33:37.189Z,32.87
2018-11-10T12:36:13.743Z,29.23
2018-11-10T12:38:50.694Z,32.07
2018-11-10T12:41:25.006Z,33.13
2018-11-10T12:43:55.536Z,33.27
2018-11-10T12:46:29.566Z,33.17
2018-11-10T12:49:03.321Z,34.47
2018-11-10T12:51:39.051Z,34.87
2018-11-10T12:54:12.746Z,33.90
2018-11-10T12:56:43.909Z,31.47
2018-11-10T12:59:17.114Z,34.43
2018-11-10T13:01:53.163Z,36.30
2018-11-10T13:04:31.793Z,34.40
2018-11-10T13:07:01.620Z,33.70
2018-11-10T13:09:38.071Z,33.07
2018-11-10T13:12:09.874Z,35.83
2018-11-10T13:14:45.036Z,36.80
2018-11-10T13:17:21.209Z,33.57
2018-11-10T13:19:51.762Z,35.40
2018-11-10T13:22:21.277Z,33.10
2018-11-10T13:24:51.968Z,32.40
2018-11-10T13:27:23.078Z,32.80
2018-11-10T13:29:57.028Z,33.10
2018-11-10T13:32:32.927Z,32.90
2018-11-10T13:35:03.430Z,31.40
2018-11-10T13:37:35.155Z,34.13
2018-11-10T13:40:16.949Z,33.30
2018-11-10T13:42:47.697Z,32.87
2018-11-10T13:45:20.402Z,32.80
2018-11-10T13:47:49.728Z,31.77
2018-11-10T13:50:21.078Z,31.90
2018-11-10T13:52:50.358Z,30.70
2018-11-10T13:55:27.018Z,32.20
2018-11-10T13:57:58.999Z,32.37
2018-11-10T14:00:28.291Z,31.47
2018-11-10T14:02:59.065Z,33.93
2018-11-10T14:05:30.305Z,33.67
2018-11-10T14:08:05.612Z,32.67
2018-11-10T14:10:35.066Z,31.50
2018-11-10T14:13:09.853Z,32.50
2018-11-10T14:15:45.679Z,31.17
2018-11-10T14:18:17.616Z,30.67
2018-11-10T14:20:53.501Z,31.83
2018-11-10T14:23:31.276Z,32.50
2018-11-10T14:26:07.359Z,32.90
2018-11-10T14:28:39.158Z,29.57
2018-11-10T14:31:15.787Z,30.67
2018-11-10T14:33:46.598Z,30.87
2018-11-10T14:36:15.677Z,32.37
2018-11-10T14:38:51.115Z,29.93
2018-11-10T14:41:23.996Z,31.20
2018-11-10T14:44:03.444Z,32.03
2018-11-10T14:48:50.393Z,30.10
2018-11-10T14:51:23.675Z,30.13
2018-11-10T14:54:01.971Z,30.70
2018-11-10T14:59:20.086Z,30.97
2018-11-10T15:01:57.450Z,30.40
2018-11-10T15:04:35.488Z,29.10
2018-11-10T15:07:09.231Z,31.20
2018-11-10T15:09:51.050Z,31.30
2018-11-10T15:12:32.460Z,32.77
2018-11-10T15:15:07.042Z,30.87
2018-11-10T15:17:46.250Z,32.40
2018-11-10T15:20:19.464Z,31.50
2018-11-10T15:22:51.584Z,32.43
2018-11-10T15:25:23.467Z,30.30
2018-11-10T15:27:54.081Z,29.93
2018-11-10T15:30:31.707Z,29.90
2018-11-10T15:33:03.641Z,31.87
2018-11-10T15:35:34.767Z,31.80
2018-11-10T15:38:04.239Z,31.37
2018-11-10T15:40:36.841Z,32.30
2018-11-10T15:43:16.587Z,31.13
2018-11-10T15:45:47.732Z,31.50
2018-11-10T15:48:18.674Z,33.13
2018-11-10T15:50:49.505Z,30.97
2018-11-10T15:53:25.129Z,29.03
2018-11-10T15:56:07.856Z,30.73
2018-11-10T15:58:40.035Z,31.00
2018-11-10T16:01:19.289Z,29.07
2018-11-10T16:03:50.991Z,30.30
2018-11-10T16:06:22.335Z,28.07
2018-11-10T16:08:56.619Z,28.10
2018-11-10T16:11:33.005Z,29.50
2018-11-10T16:14:06.324Z,27.80
2018-11-10T16:16:41.357Z,29.63
2018-11-10T16:19:14.065Z,29.10
2018-11-10T16:21:46.715Z,28.73
2018-11-10T16:24:18.734Z,27.60
2018-11-10T16:26:52.434Z,28.10
2018-11-10T16:29:24.200Z,26.80
2018-11-10T16:32:00.024Z,27.30
2018-11-10T16:34:36.905Z,29.77
2018-11-10T16:37:08.428Z,28.60
2018-11-10T16:39:42.055Z,32.10
2018-11-10T16:42:18.317Z,32.60
2018-11-10T16:44:49.075Z,31.60
2018-11-10T16:47:21.610Z,27.83
2018-11-10T16:49:54.988Z,31.57
2018-11-10T16:52:30.542Z,31.33
2018-11-10T16:55:09.273Z,30.70
2018-11-10T16:57:42.109Z,31.23
2018-11-10T17:00:17.741Z,30.60
2018-11-10T17:02:48.709Z,32.17
2018-11-10T17:05:22.154Z,30.57
2018-11-10T17:08:02.359Z,33.70
2018-11-10T17:10:35.018Z,32.77
2018-11-10T17:13:11.479Z,32.70
2018-11-10T17:15:43.021Z,33.43
2018-11-10T17:18:14.258Z,33.30
2018-11-10T17:20:46.808Z,32.13
2018-11-10T17:23:20.648Z,33.30
2018-11-10T17:26:02.398Z,32.70
2018-11-10T17:28:36.398Z,35.90
2018-11-10T17:31:17.202Z,33.90
2018-11-10T17:34:03.719Z,35.53
2018-11-10T17:36:40.199Z,33.77
2018-11-10T17:39:14.932Z,38.43
2018-11-10T17:41:48.604Z,37.07
2018-11-10T17:44:22.204Z,33.67
2018-11-10T17:47:06.571Z,34.33
2018-11-10T17:49:42.083Z,33.70
2018-11-10T17:52:21.860Z,32.70
2018-11-10T17:55:01.597Z,32.50
2018-11-10T17:57:33.936Z,32.00
2018-11-10T18:00:05.470Z,33.10
2018-11-10T18:02:44.397Z,35.03
2018-11-10T18:05:36.979Z,35.87
2018-11-10T18:08:14.641Z,34.50
2018-11-10T18:10:49.531Z,34.17
2018-11-10T18:13:27.022Z,32.13
2018-11-10T18:15:59.670Z,33.77
2018-11-10T18:18:40.711Z,33.07
2018-11-10T18:21:22.263Z,33.17
2018-11-10T18:23:59.658Z,33.30
2018-11-10T18:26:42.949Z,32.80
2018-11-10T18:29:24.842Z,35.20
2018-11-10T18:32:04.007Z,33.10
2018-11-10T18:37:18.502Z,33.70
2018-11-10T18:40:03.766Z,33.83
2018-11-10T18:42:47.615Z,32.50
2018-11-10T18:48:26.326Z,32.73
2018-11-10T18:51:06.220Z,35.33
2018-11-10T18:53:41.429Z,33.17
2018-11-10T18:56:13.495Z,36.20
2018-11-10T18:58:46.096Z,35.90
2018-11-10T19:01:23.782Z,35.80
2018-11-10T19:04:02.129Z,33.70
2018-11-10T19:06:42.595Z,31.67
2018-11-10T19:09:25.905Z,33.60
2018-11-10T19:12:06.957Z,33.67
2018-11-10T19:14:49.348Z,30.77
2018-11-10T19:20:01.976Z,35.30
2018-11-10T19:22:48.069Z,50.17
2018-11-10T19:28:23.378Z,34.47
2018-11-10T19:31:03.554Z,35.40
2018-11-10T19:33:42.907Z,36.70
2018-11-10T19:36:29.160Z,36.10
2018-11-10T19:39:11.437Z,34.23
2018-11-10T19:41:54.514Z,34.80
2018-11-10T19:44:44.288Z,35.50
2018-11-10T19:47:24.884Z,36.90
2018-11-10T19:50:05.592Z,37.70
2018-11-10T19:52:45.007Z,37.33
2018-11-10T19:55:21.314Z,37.30
2018-11-10T19:57:54.615Z,38.90
2018-11-10T20:00:36.465Z,37.30
2018-11-10T20:03:09.750Z,37.43
2018-11-10T20:05:42.568Z,38.07
2018-11-10T20:08:14.563Z,38.77
2018-11-10T20:10:50.106Z,39.73
2018-11-10T20:13:26.468Z,39.60
2018-11-10T20:15:59.562Z,39.53
2018-11-10T20:18:32.766Z,38.03
2018-11-10T20:21:06.556Z,39.60
2018-11-10T20:23:42.299Z,38.20
2018-11-10T20:26:14.159Z,38.57
2018-11-10T20:28:51.767Z,38.37
2018-11-10T20:31:23.200Z,39.10
2018-11-10T20:33:54.395Z,42.30
2018-11-10T20:36:28.836Z,39.90
2018-11-10T20:39:02.456Z,41.27
2018-11-10T20:41:40.865Z,40.53
2018-11-10T20:44:20.493Z,37.93
2018-11-10T20:46:54.199Z,40.30
2018-11-10T20:49:39.810Z,41.77
2018-11-10T20:52:20.826Z,37.60
2018-11-10T20:57:37.221Z,38.57
2018-11-10T21:00:18.884Z,41.57
2018-11-10T21:03:08.632Z,41.17
2018-11-10T21:05:42.684Z,39.70
2018-11-10T21:08:13.369Z,39.00
2018-11-10T21:10:46.536Z,40.10
2018-11-10T21:13:25.903Z,39.87
2018-11-10T21:15:59.850Z,40.37
2018-11-10T21:18:32.212Z,40.87
2018-11-10T21:21:07.604Z,38.00
2018-11-10T21:23:37.713Z,40.77
2018-11-10T21:26:11.325Z,40.57
2018-11-10T21:28:43.517Z,40.20
2018-11-10T21:31:18.376Z,41.80
2018-11-10T21:33:49.659Z,41.47
2018-11-10T21:39:18.248Z,40.97
2018-11-10T21:41:59.493Z,43.53
2018-11-10T21:44:29.882Z,44.20
2018-11-10T21:47:05.448Z,43.10
2018-11-10T21:49:42.644Z,43.23
2018-11-10T21:52:19.127Z,40.30
2018-11-10T21:54:54.855Z,40.90
2018-11-10T21:57:30.540Z,39.90
2018-11-10T22:00:02.183Z,39.90
2018-11-10T22:02:32.327Z,42.20
2018-11-10T22:05:03.142Z,42.73
2018-11-10T22:07:36.822Z,40.80
2018-11-10T22:10:12.306Z,42.17
2018-11-10T22:12:45.694Z,40.87
2018-11-10T22:15:18.467Z,43.30
2018-11-10T22:17:49.980Z,42.27
2018-11-10T22:20:22.778Z,43.67
2018-11-10T22:22:52.254Z,41.80
2018-11-10T22:25:22.996Z,41.30
2018-11-10T22:27:54.738Z,43.43
2018-11-10T22:30:26.423Z,38.87
2018-11-10T22:32:59.521Z,43.13
2018-11-10T22:35:29.715Z,43.03
2018-11-10T22:38:07.071Z,43.53
2018-11-10T22:40:39.283Z,42.70
2018-11-10T22:43:10.991Z,43.27
2018-11-10T22:45:40.967Z,43.13
2018-11-10T22:48:10.813Z,43.27
2018-11-10T22:50:42.974Z,45.33
2018-11-10T22:53:15.311Z,45.27
2018-11-10T22:55:48.323Z,45.27
2018-11-10T22:58:18.033Z,45.73
2018-11-10T23:00:52.774Z,42.97
2018-11-10T23:03:23.103Z,44.80
2018-11-10T23:05:51.987Z,46.70
2018-11-10T23:08:23.602Z,45.70
2018-11-10T23:10:54.536Z,44.17
2018-11-10T23:13:26.438Z,46.10
2018-11-10T23:15:57.093Z,44.77
2018-11-10T23:18:26.433Z,43.90
2018-11-10T23:20:56.785Z,42.57
2018-11-10T23:23:28.279Z,46.17
2018-11-10T23:25:59.432Z,44.13
2018-11-10T23:28:30.271Z,46.17
2018-11-10T23:31:00.195Z,46.50
2018-11-10T23:33:29.646Z,41.17
2018-11-10T23:37:02.062Z,43.80
2018-11-10T23:39:33.218Z,41.93
2018-11-10T23:42:04.812Z,44.70
2018-11-10T23:44:36.318Z,45.87
2018-11-10T23:47:05.466Z,45.50
2018-11-10T23:49:36.259Z,45.70
2018-11-10T23:52:05.736Z,43.37
2018-11-10T23:54:35.159Z,41.20
2018-11-10T23:57:03.940Z,43.40
2018-11-10T23:59:33.586Z,42.37
